Omaha — WDC9423 — position and weather

sailwx.info

Track history (hours):
 
Tides and Currents Weather Stations Pressure Air Temp Water Temp Dewpoint Dewpoint Depression Visibility Wind Speed Wind Dir Waves Ship Positions

Omaha

Owner: Turn Services, LLC, New Orleans, LA. More information available from US FCC via Universal Licensing System and Coast Guard Vessel Documentation Center.

Last reported at 2016-Jul-01 18:33 UTC. Time now 2016-Jul-01 19:08 UTC.
Position N 29°55' W 089°55'.

Length 13 m; draft 3.5 m.

Type: Pilot. MMSI: 367102030.

Date/timePositionNaut miles runAvg speedWind from/ knotsBaromVisibWave heightAir tempDewpointWater temp
2016-Jul-01 18:33N 29°55' W 089°55'1 0.9
2016-Jul-01 17:33N 29°55' W 089°56'1 0.6
2016-Jul-01 16:33N 29°55' W 089°57'1 0.7
2016-Jul-01 15:33N 29°55' W 089°56'0 0.3
2016-Jul-01 14:25N 29°55' W 089°56'0 0.4
2016-Jul-01 13:33N 29°55' W 089°56'0 0.1
2016-Jul-01 11:31N 29°55' W 089°56'0 0.0
2016-Jul-01 10:33N 29°55' W 089°56'0 0.3
2016-Jul-01 09:32N 29°55' W 089°56'2 2.1
2016-Jul-01 08:33N 29°56' W 089°58'2 2.4
2016-Jul-01 07:33N 29°55' W 089°55'1 0.6
2016-Jul-01 06:33N 29°55' W 089°56'0 0.2
2016-Jul-01 05:33N 29°55' W 089°56'0 0.0
2016-Jul-01 04:33N 29°55' W 089°56'0 0.0
2016-Jul-01 03:33N 29°55' W 089°56'0 0.0
2016-Jul-01 02:33N 29°55' W 089°56'1 0.5
2016-Jul-01 01:33N 29°55' W 089°55'0 0.4
2016-Jul-01 00:33N 29°55' W 089°56'0 0.0
2016-Jun-30 23:33N 29°55' W 089°56'0 0.2
2016-Jun-30 22:31N 29°55' W 089°56'0 0.4
2016-Jun-30 21:33N 29°55' W 089°56'0 0.0
2016-Jun-30 20:33N 29°55' W 089°56'0 0.1
2016-Jun-30 19:33N 29°55' W 089°56'0 0.3
2016-Jun-30 18:25N 29°55' W 089°56'2 2.8
2016-Jun-30 17:33N 29°56' W 089°59'2 2.3
2016-Jun-30 16:33N 29°55' W 089°56'3 2.6
2016-Jun-30 15:34N 29°56' W 089°59'3 2.8
2016-Jun-30 14:33N 29°55' W 089°56'0 0.0
2016-Jun-30 13:33N 29°55' W 089°56'0 0.3
2016-Jun-30 12:33N 29°55' W 089°56'0 0.4
2016-Jun-30 11:33N 29°55' W 089°56'0 0.4
2016-Jun-30 10:34N 29°55' W 089°56'1 0.5
2016-Jun-30 09:31N 29°55' W 089°56'0 0.5
2016-Jun-30 08:33N 29°55' W 089°56'0 0.3
2016-Jun-30 07:33N 29°55' W 089°56'0 0.2
2016-Jun-30 06:33N 29°55' W 089°56'1 0.6
2016-Jun-30 05:33N 29°55' W 089°57'1 0.6
2016-Jun-30 04:34N 29°55' W 089°56'0 0.3
2016-Jun-30 03:33N 29°55' W 089°56'0 0.3
2016-Jun-30 02:33N 29°55' W 089°56'0 0.2
2016-Jun-30 01:33N 29°55' W 089°56'0 0.3
2016-Jun-30 00:30N 29°55' W 089°56'1 1.0
2016-Jun-29 23:34N 29°55' W 089°55'0 0.4
2016-Jun-29 22:33N 29°55' W 089°56'2 1.7
2016-Jun-29 21:34N 29°55' W 089°58'2 2.0
2016-Jun-29 20:34N 29°56' W 089°60'3 3.5
2016-Jun-29 19:34N 29°55' W 089°56'2 1.5
2016-Jun-29 18:10N 29°54' W 089°54'0 0.1
2016-Jun-29 17:33N 29°54' W 089°54'2 2.1
2016-Jun-29 16:33N 29°55' W 089°56'2 2.1
2016-Jun-29 15:33N 29°54' W 089°54'1 1.4
2016-Jun-29 14:33N 29°55' W 089°55'0 0.5
2016-Jun-29 13:33N 29°55' W 089°56'0 0.0
2016-Jun-29 12:33N 29°55' W 089°56'0 0.5
2016-Jun-29 11:33N 29°55' W 089°56'1 0.5
2016-Jun-29 10:32N 29°55' W 089°56'0 0.4
2016-Jun-29 09:33N 29°55' W 089°56'0 0.2
2016-Jun-29 08:33N 29°55' W 089°56'0 0.0
2016-Jun-29 07:33N 29°55' W 089°56'2 2.3
2016-Jun-29 06:33N 29°56' W 089°59'3 3.2
2016-Jun-29 05:33N 29°55' W 089°55'1 0.9
2016-Jun-29 04:27N 29°55' W 089°56'3 3.5
2016-Jun-29 03:33N 29°56' W 089°60'2 2.4
2016-Jun-29 02:33N 29°55' W 089°57'2 1.8
2016-Jun-29 01:33N 29°55' W 089°55'1 1.0
2016-Jun-29 00:33N 29°55' W 089°56'0 0.4
2016-Jun-28 23:33N 29°55' W 089°56'0 0.0
2016-Jun-28 22:33N 29°55' W 089°56'0 0.1
2016-Jun-28 21:33N 29°55' W 089°56'1 1.2
2016-Jun-28 20:33N 29°55' W 089°57'1 0.6
2016-Jun-28 19:33N 29°55' W 089°56'1 0.6
2016-Jun-28 18:33N 29°55' W 089°56'2 1.8
2016-Jun-28 17:20N 29°54' W 089°54'1 0.7
2016-Jun-28 16:33N 29°54' W 089°54'2 2.0
2016-Jun-28 15:32N 29°55' W 089°56'1 0.5
2016-Jun-28 14:33N 29°55' W 089°56'0 0.1
2016-Jun-28 13:33N 29°55' W 089°56'0 0.2
2016-Jun-28 12:33N 29°55' W 089°56'0 0.1
2016-Jun-28 11:33N 29°55' W 089°56'0 0.0
2016-Jun-28 10:25N 29°55' W 089°56'0 0.4
2016-Jun-28 09:33N 29°55' W 089°56'0 0.1
2016-Jun-28 08:34N 29°55' W 089°56'2 2.4
2016-Jun-28 07:34N 29°56' W 089°59'3 3.3
2016-Jun-28 06:33N 29°55' W 089°55'0 0.2
2016-Jun-28 04:33N 29°55' W 089°56'1 0.6
2016-Jun-28 03:34N 29°55' W 089°56'0 0.2
2016-Jun-28 02:34N 29°55' W 089°56'1 0.6
2016-Jun-28 01:33N 29°55' W 089°56'1 0.6
2016-Jun-28 00:34N 29°55' W 089°56'0 0.5
2016-Jun-27 23:34N 29°55' W 089°56'0 0.1
2016-Jun-27 22:32N 29°55' W 089°56'0 0.4
2016-Jun-27 21:33N 29°55' W 089°55'1 0.9
2016-Jun-27 20:34N 29°55' W 089°56'0 0.4
2016-Jun-27 19:33N 29°55' W 089°56'0 0.3
2016-Jun-27 18:32N 29°55' W 089°56'0 0.4
2016-Jun-27 17:34N 29°55' W 089°56'0 0.4
2016-Jun-27 16:34N 29°55' W 089°56'0 0.3
2016-Jun-27 15:34N 29°55' W 089°56'0 0.1
2016-Jun-27 14:34N 29°55' W 089°56'0 0.2
2016-Jun-27 13:34N 29°55' W 089°56'0 0.1
2016-Jun-27 12:34N 29°55' W 089°56'0 0.1
2016-Jun-27 11:34N 29°55' W 089°56'0 0.2
2016-Jun-27 10:34N 29°55' W 089°56'1 0.6
2016-Jun-27 09:33N 29°55' W 089°56'0 0.1
2016-Jun-27 08:33N 29°55' W 089°56'0 0.0
2016-Jun-27 07:34N 29°55' W 089°56'0 0.2
2016-Jun-27 06:33N 29°55' W 089°56'0 0.3
2016-Jun-27 05:33N 29°55' W 089°56'0 0.1
2016-Jun-27 04:33N 29°55' W 089°56'1 1.0
2016-Jun-27 03:33N 29°55' W 089°57'1 1.1
2016-Jun-27 02:33N 29°55' W 089°56'0 0.2
2016-Jun-27 01:33N 29°55' W 089°56'1 1.1
2016-Jun-27 00:33N 29°55' W 089°55'1 0.9
2016-Jun-26 23:33N 29°55' W 089°56'0 0.4
2016-Jun-26 22:33N 29°55' W 089°56'2 1.8
2016-Jun-26 21:33N 29°54' W 089°54'0 0.1
2016-Jun-26 19:31N 29°54' W 089°54'2 1.7
2016-Jun-26 18:33N 29°55' W 089°55'1 0.7
2016-Jun-26 17:32N 29°55' W 089°56'1 0.6
2016-Jun-26 16:33N 29°55' W 089°55'0 0.3
2016-Jun-26 15:33N 29°55' W 089°55'1 0.8
2016-Jun-26 14:33N 29°55' W 089°56'0 0.1
2016-Jun-26 13:32N 29°55' W 089°56'0 0.2
2016-Jun-26 12:33N 29°55' W 089°56'0 0.0
2016-Jun-26 11:33N 29°55' W 089°56'0 0.2
2016-Jun-26 10:33N 29°55' W 089°56'1 0.6
2016-Jun-26 09:33N 29°55' W 089°56'0 0.5
2016-Jun-26 08:33N 29°55' W 089°56'0 0.0
2016-Jun-26 07:33N 29°55' W 089°56'0 0.0
2016-Jun-26 06:33N 29°55' W 089°56'0 0.0
2016-Jun-26 05:33N 29°55' W 089°56'0 0.0
2016-Jun-26 04:33N 29°55' W 089°56'0 0.0
2016-Jun-26 03:33N 29°55' W 089°56'2 1.6
2016-Jun-26 02:33N 29°55' W 089°58'1 1.4
2016-Jun-26 01:33N 29°55' W 089°56'2 2.0
2016-Jun-26 00:32N 29°54' W 089°54'2 1.6
2016-Jun-25 23:32N 29°55' W 089°56'0 0.2
2016-Jun-25 22:33N 29°55' W 089°56'0 0.3
2016-Jun-25 21:34N 29°55' W 089°56'2 2.4
2016-Jun-25 20:33N 29°56' W 089°59'3 2.6
2016-Jun-25 19:33N 29°55' W 089°56'0 0.0
2016-Jun-25 18:34N 29°55' W 089°56'1 0.6
2016-Jun-25 17:33N 29°55' W 089°56'0 0.0
2016-Jun-25 16:33N 29°55' W 089°56'3 3.3
2016-Jun-25 15:33N 29°56' W 089°60'4 3.8
2016-Jun-25 14:33N 29°55' W 089°56'0 0.1
2016-Jun-25 13:33N 29°55' W 089°56'0 0.0
2016-Jun-25 12:33N 29°55' W 089°56'0 0.0
2016-Jun-25 11:33N 29°55' W 089°56'0 0.1
2016-Jun-25 10:33N 29°55' W 089°56'0 0.4
2016-Jun-25 09:33N 29°55' W 089°56'0 0.0
2016-Jun-25 08:33N 29°55' W 089°56'0 0.0
2016-Jun-25 07:33N 29°55' W 089°56'0 0.0
2016-Jun-25 06:33N 29°55' W 089°56'0 0.0
2016-Jun-25 05:33N 29°55' W 089°56'3 3.2
2016-Jun-25 04:33N 29°56' W 089°59'3 2.9
2016-Jun-25 03:33N 29°55' W 089°56'2 2.2
2016-Jun-25 02:33N 29°56' W 089°59'2 1.7
2016-Jun-25 01:33N 29°55' W 089°57'0 0.1
2016-Jun-25 00:33N 29°55' W 089°57'1 0.8
2016-Jun-24 23:32N 29°55' W 089°56'0 0.0
2016-Jun-24 22:33N 29°55' W 089°56'4 4.0
2016-Jun-24 21:33N 29°57' W 089°60'4 3.7
2016-Jun-24 20:33N 29°55' W 089°56'2 2.1
2016-Jun-24 19:33N 29°54' W 089°54'1 0.7
2016-Jun-24 18:30N 29°54' W 089°55'2 2.1
2016-Jun-24 17:33N 29°55' W 089°57'0 0.1
2016-Jun-24 16:33N 29°55' W 089°57'6 5.8
2016-Jun-24 15:33N 29°57' W 090°03'5 4.9
2016-Jun-24 14:33N 29°56' W 089°58'2 1.1
2016-Jun-24 13:09N 29°55' W 089°56'0 0.0
2016-Jun-24 12:32N 29°55' W 089°56'0 0.4
2016-Jun-24 11:33N 29°55' W 089°56'0 0.2
2016-Jun-24 10:33N 29°55' W 089°56'1 0.3
2016-Jun-24 08:33N 29°55' W 089°56'1 0.9
2016-Jun-24 07:34N 29°55' W 089°57'2 0.5
2016-Jun-24 04:33N 29°55' W 089°55'0 0.3
2016-Jun-24 03:33N 29°55' W 089°56'0 0.0
2016-Jun-24 02:33N 29°55' W 089°56'0 0.1
2016-Jun-24 01:33N 29°55' W 089°56'4 4.0
2016-Jun-24 00:34N 29°57' W 090°00'4 4.1
2016-Jun-23 23:33N 29°55' W 089°56'0 0.0
2016-Jun-23 22:33N 29°55' W 089°56'0 0.1
2016-Jun-23 21:33N 29°55' W 089°56'0 0.0
2016-Jun-23 20:08N 29°55' W 089°56'0 0.0
2016-Jun-23 17:33N 29°55' W 089°56'0 0.0
2016-Jun-23 16:34N 29°55' W 089°56'1 0.7
2016-Jun-23 15:33N 29°55' W 089°57'0 0.1
2016-Jun-23 14:34N 29°55' W 089°56'0 0.3
2016-Jun-23 13:33N 29°55' W 089°57'1 0.6
2016-Jun-23 12:33N 29°55' W 089°56'0 0.2
2016-Jun-23 11:33N 29°55' W 089°56'0 0.1
2016-Jun-23 10:33N 29°55' W 089°56'0 0.0
2016-Jun-23 09:33N 29°55' W 089°56'0 0.3
2016-Jun-23 08:33N 29°55' W 089°56'0 0.0
2016-Jun-23 07:33N 29°55' W 089°56'0 0.2
2016-Jun-23 05:33N 29°55' W 089°56'0 0.0
2016-Jun-23 04:33N 29°55' W 089°56'0 0.4
2016-Jun-23 03:33N 29°55' W 089°56'0 0.2
2016-Jun-23 02:33N 29°55' W 089°56'3 3.3
2016-Jun-23 01:33N 29°56' W 089°60'1 1.2
2016-Jun-23 00:33N 29°56' W 089°59'3 2.7
2016-Jun-22 23:31N 29°55' W 089°56'0 0.0
2016-Jun-22 22:32N 29°55' W 089°56'0 0.4
2016-Jun-22 21:33N 29°55' W 089°56'0 0.2
2016-Jun-22 20:33N 29°55' W 089°56'0 0.4
2016-Jun-22 19:33N 29°55' W 089°56'0 0.1
2016-Jun-22 16:33N 29°55' W 089°56'0 0.0
2016-Jun-22 14:33N 29°55' W 089°56'0 0.0
2016-Jun-22 13:33N 29°55' W 089°56'0 0.1
2016-Jun-22 12:16N 29°55' W 089°56'0 0.5
2016-Jun-22 11:33N 29°55' W 089°56'0 0.0
2016-Jun-22 10:33N 29°55' W 089°56'0 0.1
2016-Jun-22 09:33N 29°55' W 089°56'0 0.0
2016-Jun-22 08:33N 29°55' W 089°56'0 0.0
2016-Jun-22 07:33N 29°55' W 089°56'0 0.0
2016-Jun-22 06:33N 29°55' W 089°56'0 0.0
2016-Jun-22 05:33N 29°55' W 089°56'0 0.0
2016-Jun-22 04:33N 29°55' W 089°56'1 0.6
2016-Jun-22 03:33N 29°55' W 089°56'  
Track history (hours):
 
Tides and Currents Weather Stations Pressure Air Temp Water Temp Dewpoint Dewpoint Depression Visibility Wind Speed Wind Dir Waves Ship Positions

Omaha

Owner: Turn Services, LLC, New Orleans, LA. More information available from US FCC via Universal Licensing System and Coast Guard Vessel Documentation Center.

Last reported at 2016-Jul-01 18:33 UTC. Time now 2016-Jul-01 19:08 UTC.
Position N 29°55' W 089°55'.

Length 13 m; draft 3.5 m.

Type: Pilot. MMSI: 367102030.

Date/timePositionNaut miles runAvg speedWind from/ knotsBaromVisibWave heightAir tempDewpointWater temp
2016-Jul-01 18:33N 29°55' W 089°55'1 0.9
2016-Jul-01 17:33N 29°55' W 089°56'1 0.6
2016-Jul-01 16:33N 29°55' W 089°57'1 0.7
2016-Jul-01 15:33N 29°55' W 089°56'0 0.3
2016-Jul-01 14:25N 29°55' W 089°56'0 0.4
2016-Jul-01 13:33N 29°55' W 089°56'0 0.1
2016-Jul-01 11:31N 29°55' W 089°56'0 0.0
2016-Jul-01 10:33N 29°55' W 089°56'0 0.3
2016-Jul-01 09:32N 29°55' W 089°56'2 2.1
2016-Jul-01 08:33N 29°56' W 089°58'2 2.4
2016-Jul-01 07:33N 29°55' W 089°55'1 0.6
2016-Jul-01 06:33N 29°55' W 089°56'0 0.2
2016-Jul-01 05:33N 29°55' W 089°56'0 0.0
2016-Jul-01 04:33N 29°55' W 089°56'0 0.0
2016-Jul-01 03:33N 29°55' W 089°56'0 0.0
2016-Jul-01 02:33N 29°55' W 089°56'1 0.5
2016-Jul-01 01:33N 29°55' W 089°55'0 0.4
2016-Jul-01 00:33N 29°55' W 089°56'0 0.0
2016-Jun-30 23:33N 29°55' W 089°56'0 0.2
2016-Jun-30 22:31N 29°55' W 089°56'0 0.4
2016-Jun-30 21:33N 29°55' W 089°56'0 0.0
2016-Jun-30 20:33N 29°55' W 089°56'0 0.1
2016-Jun-30 19:33N 29°55' W 089°56'0 0.3
2016-Jun-30 18:25N 29°55' W 089°56'2 2.8
2016-Jun-30 17:33N 29°56' W 089°59'2 2.3
2016-Jun-30 16:33N 29°55' W 089°56'3 2.6
2016-Jun-30 15:34N 29°56' W 089°59'3 2.8
2016-Jun-30 14:33N 29°55' W 089°56'0 0.0
2016-Jun-30 13:33N 29°55' W 089°56'0 0.3
2016-Jun-30 12:33N 29°55' W 089°56'0 0.4
2016-Jun-30 11:33N 29°55' W 089°56'0 0.4
2016-Jun-30 10:34N 29°55' W 089°56'1 0.5
2016-Jun-30 09:31N 29°55' W 089°56'0 0.5
2016-Jun-30 08:33N 29°55' W 089°56'0 0.3
2016-Jun-30 07:33N 29°55' W 089°56'0 0.2
2016-Jun-30 06:33N 29°55' W 089°56'1 0.6
2016-Jun-30 05:33N 29°55' W 089°57'1 0.6
2016-Jun-30 04:34N 29°55' W 089°56'0 0.3
2016-Jun-30 03:33N 29°55' W 089°56'0 0.3
2016-Jun-30 02:33N 29°55' W 089°56'0 0.2
2016-Jun-30 01:33N 29°55' W 089°56'0 0.3
2016-Jun-30 00:30N 29°55' W 089°56'1 1.0
2016-Jun-29 23:34N 29°55' W 089°55'0 0.4
2016-Jun-29 22:33N 29°55' W 089°56'2 1.7
2016-Jun-29 21:34N 29°55' W 089°58'2 2.0
2016-Jun-29 20:34N 29°56' W 089°60'3 3.5
2016-Jun-29 19:34N 29°55' W 089°56'2 1.5
2016-Jun-29 18:10N 29°54' W 089°54'0 0.1
2016-Jun-29 17:33N 29°54' W 089°54'2 2.1
2016-Jun-29 16:33N 29°55' W 089°56'2 2.1
2016-Jun-29 15:33N 29°54' W 089°54'1 1.4
2016-Jun-29 14:33N 29°55' W 089°55'0 0.5
2016-Jun-29 13:33N 29°55' W 089°56'0 0.0
2016-Jun-29 12:33N 29°55' W 089°56'0 0.5
2016-Jun-29 11:33N 29°55' W 089°56'1 0.5
2016-Jun-29 10:32N 29°55' W 089°56'0 0.4
2016-Jun-29 09:33N 29°55' W 089°56'0 0.2
2016-Jun-29 08:33N 29°55' W 089°56'0 0.0
2016-Jun-29 07:33N 29°55' W 089°56'2 2.3
2016-Jun-29 06:33N 29°56' W 089°59'3 3.2
2016-Jun-29 05:33N 29°55' W 089°55'1 0.9
2016-Jun-29 04:27N 29°55' W 089°56'3 3.5
2016-Jun-29 03:33N 29°56' W 089°60'2 2.4
2016-Jun-29 02:33N 29°55' W 089°57'2 1.8
2016-Jun-29 01:33N 29°55' W 089°55'1 1.0
2016-Jun-29 00:33N 29°55' W 089°56'0 0.4
2016-Jun-28 23:33N 29°55' W 089°56'0 0.0
2016-Jun-28 22:33N 29°55' W 089°56'0 0.1
2016-Jun-28 21:33N 29°55' W 089°56'1 1.2
2016-Jun-28 20:33N 29°55' W 089°57'1 0.6
2016-Jun-28 19:33N 29°55' W 089°56'1 0.6
2016-Jun-28 18:33N 29°55' W 089°56'2 1.8
2016-Jun-28 17:20N 29°54' W 089°54'1 0.7
2016-Jun-28 16:33N 29°54' W 089°54'2 2.0
2016-Jun-28 15:32N 29°55' W 089°56'1 0.5
2016-Jun-28 14:33N 29°55' W 089°56'0 0.1
2016-Jun-28 13:33N 29°55' W 089°56'0 0.2
2016-Jun-28 12:33N 29°55' W 089°56'0 0.1
2016-Jun-28 11:33N 29°55' W 089°56'0 0.0
2016-Jun-28 10:25N 29°55' W 089°56'0 0.4
2016-Jun-28 09:33N 29°55' W 089°56'0 0.1
2016-Jun-28 08:34N 29°55' W 089°56'2 2.4
2016-Jun-28 07:34N 29°56' W 089°59'3 3.3
2016-Jun-28 06:33N 29°55' W 089°55'0 0.2
2016-Jun-28 04:33N 29°55' W 089°56'1 0.6
2016-Jun-28 03:34N 29°55' W 089°56'0 0.2
2016-Jun-28 02:34N 29°55' W 089°56'1 0.6
2016-Jun-28 01:33N 29°55' W 089°56'1 0.6
2016-Jun-28 00:34N 29°55' W 089°56'0 0.5
2016-Jun-27 23:34N 29°55' W 089°56'0 0.1
2016-Jun-27 22:32N 29°55' W 089°56'0 0.4
2016-Jun-27 21:33N 29°55' W 089°55'1 0.9
2016-Jun-27 20:34N 29°55' W 089°56'0 0.4
2016-Jun-27 19:33N 29°55' W 089°56'0 0.3
2016-Jun-27 18:32N 29°55' W 089°56'0 0.4
2016-Jun-27 17:34N 29°55' W 089°56'0 0.4
2016-Jun-27 16:34N 29°55' W 089°56'0 0.3
2016-Jun-27 15:34N 29°55' W 089°56'0 0.1
2016-Jun-27 14:34N 29°55' W 089°56'0 0.2
2016-Jun-27 13:34N 29°55' W 089°56'0 0.1
2016-Jun-27 12:34N 29°55' W 089°56'0 0.1
2016-Jun-27 11:34N 29°55' W 089°56'0 0.2
2016-Jun-27 10:34N 29°55' W 089°56'1 0.6
2016-Jun-27 09:33N 29°55' W 089°56'0 0.1
2016-Jun-27 08:33N 29°55' W 089°56'0 0.0
2016-Jun-27 07:34N 29°55' W 089°56'0 0.2
2016-Jun-27 06:33N 29°55' W 089°56'0 0.3
2016-Jun-27 05:33N 29°55' W 089°56'0 0.1
2016-Jun-27 04:33N 29°55' W 089°56'1 1.0
2016-Jun-27 03:33N 29°55' W 089°57'1 1.1
2016-Jun-27 02:33N 29°55' W 089°56'0 0.2
2016-Jun-27 01:33N 29°55' W 089°56'1 1.1
2016-Jun-27 00:33N 29°55' W 089°55'1 0.9
2016-Jun-26 23:33N 29°55' W 089°56'0 0.4
2016-Jun-26 22:33N 29°55' W 089°56'2 1.8
2016-Jun-26 21:33N 29°54' W 089°54'0 0.1
2016-Jun-26 19:31N 29°54' W 089°54'2 1.7
2016-Jun-26 18:33N 29°55' W 089°55'1 0.7
2016-Jun-26 17:32N 29°55' W 089°56'1 0.6
2016-Jun-26 16:33N 29°55' W 089°55'0 0.3
2016-Jun-26 15:33N 29°55' W 089°55'1 0.8
2016-Jun-26 14:33N 29°55' W 089°56'0 0.1
2016-Jun-26 13:32N 29°55' W 089°56'0 0.2
2016-Jun-26 12:33N 29°55' W 089°56'0 0.0
2016-Jun-26 11:33N 29°55' W 089°56'0 0.2
2016-Jun-26 10:33N 29°55' W 089°56'1 0.6
2016-Jun-26 09:33N 29°55' W 089°56'0 0.5
2016-Jun-26 08:33N 29°55' W 089°56'0 0.0
2016-Jun-26 07:33N 29°55' W 089°56'0 0.0
2016-Jun-26 06:33N 29°55' W 089°56'0 0.0
2016-Jun-26 05:33N 29°55' W 089°56'0 0.0
2016-Jun-26 04:33N 29°55' W 089°56'0 0.0
2016-Jun-26 03:33N 29°55' W 089°56'2 1.6
2016-Jun-26 02:33N 29°55' W 089°58'1 1.4
2016-Jun-26 01:33N 29°55' W 089°56'2 2.0
2016-Jun-26 00:32N 29°54' W 089°54'2 1.6
2016-Jun-25 23:32N 29°55' W 089°56'0 0.2
2016-Jun-25 22:33N 29°55' W 089°56'0 0.3
2016-Jun-25 21:34N 29°55' W 089°56'2 2.4
2016-Jun-25 20:33N 29°56' W 089°59'3 2.6
2016-Jun-25 19:33N 29°55' W 089°56'0 0.0
2016-Jun-25 18:34N 29°55' W 089°56'1 0.6
2016-Jun-25 17:33N 29°55' W 089°56'0 0.0
2016-Jun-25 16:33N 29°55' W 089°56'3 3.3
2016-Jun-25 15:33N 29°56' W 089°60'4 3.8
2016-Jun-25 14:33N 29°55' W 089°56'0 0.1
2016-Jun-25 13:33N 29°55' W 089°56'0 0.0
2016-Jun-25 12:33N 29°55' W 089°56'0 0.0
2016-Jun-25 11:33N 29°55' W 089°56'0 0.1
2016-Jun-25 10:33N 29°55' W 089°56'0 0.4
2016-Jun-25 09:33N 29°55' W 089°56'0 0.0
2016-Jun-25 08:33N 29°55' W 089°56'0 0.0
2016-Jun-25 07:33N 29°55' W 089°56'0 0.0
2016-Jun-25 06:33N 29°55' W 089°56'0 0.0
2016-Jun-25 05:33N 29°55' W 089°56'3 3.2
2016-Jun-25 04:33N 29°56' W 089°59'3 2.9
2016-Jun-25 03:33N 29°55' W 089°56'2 2.2
2016-Jun-25 02:33N 29°56' W 089°59'2 1.7
2016-Jun-25 01:33N 29°55' W 089°57'0 0.1
2016-Jun-25 00:33N 29°55' W 089°57'1 0.8
2016-Jun-24 23:32N 29°55' W 089°56'0 0.0
2016-Jun-24 22:33N 29°55' W 089°56'4 4.0
2016-Jun-24 21:33N 29°57' W 089°60'4 3.7
2016-Jun-24 20:33N 29°55' W 089°56'2 2.1
2016-Jun-24 19:33N 29°54' W 089°54'1 0.7
2016-Jun-24 18:30N 29°54' W 089°55'2 2.1
2016-Jun-24 17:33N 29°55' W 089°57'0 0.1
2016-Jun-24 16:33N 29°55' W 089°57'6 5.8
2016-Jun-24 15:33N 29°57' W 090°03'5 4.9
2016-Jun-24 14:33N 29°56' W 089°58'2 1.1
2016-Jun-24 13:09N 29°55' W 089°56'0 0.0
2016-Jun-24 12:32N 29°55' W 089°56'0 0.4
2016-Jun-24 11:33N 29°55' W 089°56'0 0.2
2016-Jun-24 10:33N 29°55' W 089°56'1 0.3
2016-Jun-24 08:33N 29°55' W 089°56'1 0.9
2016-Jun-24 07:34N 29°55' W 089°57'2 0.5
2016-Jun-24 04:33N 29°55' W 089°55'0 0.3
2016-Jun-24 03:33N 29°55' W 089°56'0 0.0
2016-Jun-24 02:33N 29°55' W 089°56'0 0.1
2016-Jun-24 01:33N 29°55' W 089°56'4 4.0
2016-Jun-24 00:34N 29°57' W 090°00'4 4.1
2016-Jun-23 23:33N 29°55' W 089°56'0 0.0
2016-Jun-23 22:33N 29°55' W 089°56'0 0.1
2016-Jun-23 21:33N 29°55' W 089°56'0 0.0
2016-Jun-23 20:08N 29°55' W 089°56'0 0.0
2016-Jun-23 17:33N 29°55' W 089°56'0 0.0
2016-Jun-23 16:34N 29°55' W 089°56'1 0.7
2016-Jun-23 15:33N 29°55' W 089°57'0 0.1
2016-Jun-23 14:34N 29°55' W 089°56'0 0.3
2016-Jun-23 13:33N 29°55' W 089°57'1 0.6
2016-Jun-23 12:33N 29°55' W 089°56'0 0.2
2016-Jun-23 11:33N 29°55' W 089°56'0 0.1
2016-Jun-23 10:33N 29°55' W 089°56'0 0.0
2016-Jun-23 09:33N 29°55' W 089°56'0 0.3
2016-Jun-23 08:33N 29°55' W 089°56'0 0.0
2016-Jun-23 07:33N 29°55' W 089°56'0 0.2
2016-Jun-23 05:33N 29°55' W 089°56'0 0.0
2016-Jun-23 04:33N 29°55' W 089°56'0 0.4
2016-Jun-23 03:33N 29°55' W 089°56'0 0.2
2016-Jun-23 02:33N 29°55' W 089°56'3 3.3
2016-Jun-23 01:33N 29°56' W 089°60'1 1.2
2016-Jun-23 00:33N 29°56' W 089°59'3 2.7
2016-Jun-22 23:31N 29°55' W 089°56'0 0.0
2016-Jun-22 22:32N 29°55' W 089°56'0 0.4
2016-Jun-22 21:33N 29°55' W 089°56'0 0.2
2016-Jun-22 20:33N 29°55' W 089°56'0 0.4
2016-Jun-22 19:33N 29°55' W 089°56'0 0.1
2016-Jun-22 16:33N 29°55' W 089°56'0 0.0
2016-Jun-22 14:33N 29°55' W 089°56'0 0.0
2016-Jun-22 13:33N 29°55' W 089°56'0 0.1
2016-Jun-22 12:16N 29°55' W 089°56'0 0.5
2016-Jun-22 11:33N 29°55' W 089°56'0 0.0
2016-Jun-22 10:33N 29°55' W 089°56'0 0.1
2016-Jun-22 09:33N 29°55' W 089°56'0 0.0
2016-Jun-22 08:33N 29°55' W 089°56'0 0.0
2016-Jun-22 07:33N 29°55' W 089°56'0 0.0
2016-Jun-22 06:33N 29°55' W 089°56'0 0.0
2016-Jun-22 05:33N 29°55' W 089°56'0 0.0
2016-Jun-22 04:33N 29°55' W 089°56'1 0.6
2016-Jun-22 03:33N 29°55' W 089°56'  

Dump ship's entire track history